岡山グライダークラブ活動状況掲示板

岡山グライダークラブ
岡山市浦安南町639-1 岡南飛行場
 使用機:シャイベ式 SF25C型 ファルケ   JA2330
      ヴァレンティン式17E型 タイフーン  JA2342
 練習日:毎日曜日  クラブルーム:電話 086-265-1810
この掲示板は岡山グライダークラブの活動状況をお知らせする掲示板です。
!!!この掲示板は投稿規制をしています。!!!
クラブ関連各種情報は 岡山グライダークラブクラブルーム      を       .
  ブリーフイング情報は  岡山グライダークラブブリーフィングルーム  をご覧下さい。 .
※写真はクリックすると拡大して見ることが出来ます。
岡南飛行場へのアクセス等は 岡南飛行場管理事務所 をご覧ください。
クラブの ホームページ ができました。

!!!最近のコロナ感染拡大に伴い、当面の間、見学者等の受入を中止しております。再開まで今しばらくお待ちください!!!

 
04月18日
by OGC at 2021/4/18(日) 19:31:47 No.20210418192514  削除コメント
1024 x 768 x 70,583バイト
No.1

04月18日
本日の参加者
  会員      13名
  その他      4名


@本日の様子






METAR
RJBK 180000Z 25016KT 30KM SCT025CU 13/05 Q1011 A2986
RJOB 180000Z 26010KT 190V300 9999 FEW020 SCT030 11/04 Q1010
RJOT 180000Z 27016KT 9999 VCSH FEW020 SCT035 12/03 Q1011
RJOA 180000Z 27012KT 240V300 9999 FEW030 BKN035 08/01 Q1011
TAF
RJOB 172305Z 1800/1906 26012KT 9999 FEW020 SCT035
RJOT 172306Z 1800/1906 26017KT 9999 FEW020 SCT040
     TEMPO 1800/1806 26018G29KT
     BECMG 1808/1810 26007KT
RJOA 172306Z 1800/1906 28014KT 9999 FEW025 BKN045

本日は、風が強く、一時、ガスト32KTで着陸訓練には不向きな天候でした。
訓練生は強風時の訓練、ライセンサーはサーマルやリッジの上昇気流を探していました。

本日の見学者は、なんと岡山を中心に活動しているアイドルグループのShainさんが来られました。(@_@)


解散    17:50

1番機  10:40離陸 撤収機  17:35着陸 

SF25C JA2330 ファルケ     10Flt.3h45min  
17E   JA2342 タイフーン    00Flt.0h00min  
合計                    10Flt.3h45min

    << 戻る || ホームページ || 最新の掲示板へ